createdAt,value
2023-05-06T00:01:33.928Z,8.82
2023-05-06T00:04:00.780Z,6.90
2023-05-06T00:06:27.661Z,10.90
2023-05-06T00:08:54.397Z,8.75
2023-05-06T00:11:21.160Z,6.57
2023-05-06T00:13:47.749Z,9.40
2023-05-06T00:16:14.330Z,7.93
2023-05-06T00:18:43.323Z,8.43
2023-05-06T00:21:10.169Z,10.38
2023-05-06T00:23:36.878Z,7.80
2023-05-06T00:26:03.463Z,10.02
2023-05-06T00:28:30.065Z,9.68
2023-05-06T00:30:57.629Z,11.33
2023-05-06T00:33:24.354Z,7.80
2023-05-06T00:35:52.458Z,8.02
2023-05-06T00:38:19.713Z,9.15
2023-05-06T00:40:46.316Z,9.57
2023-05-06T00:43:15.394Z,6.97
2023-05-06T00:45:42.144Z,7.00
2023-05-06T00:48:09.574Z,8.35
2023-05-06T00:50:38.975Z,9.32
2023-05-06T00:53:06.764Z,8.93
2023-05-06T00:55:33.509Z,9.13
2023-05-06T00:58:01.088Z,9.98
2023-05-06T01:00:30.193Z,6.85
2023-05-06T01:02:56.911Z,7.95
2023-05-06T01:05:28.293Z,7.40
2023-05-06T01:08:11.077Z,7.93
2023-05-06T01:11:18.153Z,8.98
2023-05-06T01:13:52.390Z,8.77
2023-05-06T01:16:25.413Z,8.27
2023-05-06T01:18:54.790Z,8.85
2023-05-06T01:21:22.828Z,6.93
2023-05-06T01:23:58.373Z,8.40
2023-05-06T01:26:25.534Z,8.32
2023-05-06T01:28:52.252Z,8.45
2023-05-06T01:31:35.186Z,6.82
2023-05-06T01:34:23.940Z,8.87
2023-05-06T01:37:38.240Z,9.13
2023-05-06T01:40:06.025Z,7.43
2023-05-06T01:42:36.946Z,7.50
2023-05-06T01:45:06.097Z,13.27
2023-05-06T01:47:33.805Z,8.57
2023-05-06T01:50:01.984Z,8.70
2023-05-06T01:52:31.121Z,8.50
2023-05-06T01:54:58.395Z,6.78
2023-05-06T01:57:25.168Z,8.63
2023-05-06T01:59:51.872Z,8.73
2023-05-06T02:02:18.469Z,7.50
2023-05-06T02:04:47.721Z,8.68
2023-05-06T02:07:16.473Z,9.02
2023-05-06T02:09:43.028Z,9.52
2023-05-06T02:12:09.615Z,8.43
2023-05-06T02:14:36.317Z,9.15
2023-05-06T02:17:06.310Z,8.55
2023-05-06T02:19:32.926Z,10.13
2023-05-06T02:21:59.487Z,7.47
2023-05-06T02:24:27.018Z,10.33
2023-05-06T02:26:53.657Z,8.30
2023-05-06T02:29:20.797Z,7.60
2023-05-06T02:31:47.428Z,8.88
2023-05-06T02:34:14.017Z,7.25
2023-05-06T02:36:42.825Z,9.40
2023-05-06T02:39:11.990Z,8.60
2023-05-06T02:41:41.595Z,9.27
2023-05-06T02:44:08.166Z,9.55
2023-05-06T02:46:34.852Z,9.18
2023-05-06T02:49:03.682Z,7.17
2023-05-06T02:51:31.137Z,10.15
2023-05-06T02:53:57.668Z,7.57
2023-05-06T02:56:24.331Z,10.32
2023-05-06T02:58:53.500Z,8.25
2023-05-06T03:01:20.103Z,9.00
2023-05-06T03:03:48.945Z,7.90
2023-05-06T03:06:15.631Z,10.05
2023-05-06T03:08:44.635Z,9.32
2023-05-06T03:11:13.435Z,8.43
2023-05-06T03:13:40.036Z,8.63
2023-05-06T03:16:16.722Z,9.20
2023-05-06T03:18:43.270Z,8.27
2023-05-06T03:21:09.990Z,10.35
2023-05-06T03:23:38.924Z,10.20
2023-05-06T03:26:05.586Z,10.13
2023-05-06T03:28:32.315Z,8.57
2023-05-06T03:30:59.009Z,7.32
2023-05-06T03:33:25.675Z,8.80
2023-05-06T03:35:52.238Z,11.02
2023-05-06T03:38:18.756Z,9.17
2023-05-06T03:40:45.296Z,7.78
2023-05-06T03:43:11.852Z,7.65
2023-05-06T03:45:38.385Z,9.40
2023-05-06T03:48:05.158Z,9.35
2023-05-06T03:50:31.908Z,7.97
2023-05-06T03:52:58.472Z,7.60
2023-05-06T03:55:27.302Z,8.05
2023-05-06T03:57:53.870Z,8.90
2023-05-06T04:00:20.902Z,8.70
2023-05-06T04:02:47.481Z,9.33
2023-05-06T04:05:16.527Z,8.55
2023-05-06T04:07:43.106Z,9.23
2023-05-06T04:10:10.027Z,8.77
2023-05-06T04:12:36.640Z,8.05
2023-05-06T04:15:03.408Z,10.07
2023-05-06T04:17:30.049Z,10.68
2023-05-06T04:19:57.515Z,10.35
2023-05-06T04:22:24.158Z,10.93
2023-05-06T04:24:50.720Z,7.40
2023-05-06T04:27:17.349Z,10.07
2023-05-06T04:29:43.904Z,10.93
2023-05-06T04:32:11.845Z,8.73
2023-05-06T04:34:38.542Z,10.45
2023-05-06T04:37:05.709Z,9.60
2023-05-06T04:39:32.718Z,8.13
2023-05-06T04:42:02.351Z,9.18
2023-05-06T04:44:29.520Z,11.25
2023-05-06T04:46:56.221Z,10.02
2023-05-06T04:49:22.773Z,9.90
2023-05-06T04:51:49.361Z,9.60
2023-05-06T04:54:15.950Z,7.97
2023-05-06T04:56:45.537Z,10.55
2023-05-06T04:59:12.230Z,10.60
2023-05-06T05:01:38.957Z,9.23
2023-05-06T05:04:05.608Z,9.53
2023-05-06T05:06:32.218Z,7.80
2023-05-06T05:08:59.639Z,7.78
2023-05-06T05:11:26.764Z,9.15
2023-05-06T05:13:56.939Z,9.75
2023-05-06T05:16:24.519Z,9.00
2023-05-06T05:18:53.568Z,9.13
2023-05-06T05:21:21.127Z,8.10
2023-05-06T05:23:47.724Z,9.50
2023-05-06T05:26:14.280Z,8.40
2023-05-06T05:28:40.834Z,9.93
2023-05-06T05:31:09.677Z,11.63
2023-05-06T05:33:39.630Z,7.50
2023-05-06T05:36:06.858Z,8.80
2023-05-06T05:38:33.847Z,8.95
2023-05-06T05:41:00.401Z,8.50
2023-05-06T05:43:27.108Z,10.25
2023-05-06T05:45:53.706Z,8.00
2023-05-06T05:48:20.358Z,7.45
2023-05-06T05:50:46.959Z,6.50
2023-05-06T05:53:13.536Z,8.63
2023-05-06T05:55:42.217Z,9.95
2023-05-06T05:58:14.641Z,8.82
2023-05-06T06:00:41.302Z,7.10
2023-05-06T06:03:08.076Z,7.82
2023-05-06T06:05:34.773Z,8.07
2023-05-06T06:08:03.474Z,10.43
2023-05-06T06:10:30.761Z,9.15
2023-05-06T06:12:59.904Z,10.10
2023-05-06T06:15:26.596Z,8.77
2023-05-06T06:17:58.088Z,8.03
2023-05-06T06:20:27.254Z,8.63
2023-05-06T06:22:53.939Z,9.50
2023-05-06T06:25:21.595Z,10.30
2023-05-06T06:27:50.578Z,9.57
2023-05-06T06:30:17.213Z,9.27
2023-05-06T06:32:52.545Z,8.10
2023-05-06T06:35:23.666Z,9.70
2023-05-06T06:37:50.567Z,7.10
2023-05-06T06:40:17.222Z,7.85
2023-05-06T06:42:43.856Z,8.77
2023-05-06T06:45:11.237Z,8.82
2023-05-06T06:47:38.039Z,10.70
2023-05-06T06:50:05.082Z,8.65
2023-05-06T06:52:31.740Z,9.05
2023-05-06T06:54:58.344Z,8.23
2023-05-06T06:57:25.048Z,9.65
2023-05-06T06:59:53.688Z,7.72
2023-05-06T07:02:25.952Z,9.35
2023-05-06T07:04:53.991Z,11.15
2023-05-06T07:07:20.640Z,8.77
2023-05-06T07:09:47.265Z,8.73
2023-05-06T07:12:14.015Z,8.90
2023-05-06T07:14:43.133Z,11.40
2023-05-06T07:17:09.710Z,6.90
2023-05-06T07:19:36.476Z,9.13
2023-05-06T07:22:03.222Z,9.68
2023-05-06T07:24:29.832Z,9.25
2023-05-06T07:26:56.704Z,8.38
2023-05-06T07:29:26.134Z,8.90
2023-05-06T07:31:52.735Z,11.63
2023-05-06T07:34:22.501Z,9.75
2023-05-06T07:36:49.193Z,11.25
2023-05-06T07:39:18.085Z,11.90
2023-05-06T07:41:46.916Z,8.35
2023-05-06T07:44:13.496Z,10.43
2023-05-06T07:46:40.344Z,8.20
2023-05-06T07:49:07.140Z,10.93
2023-05-06T07:51:33.712Z,8.68
2023-05-06T07:54:02.378Z,13.05
2023-05-06T07:56:31.241Z,9.40
2023-05-06T07:58:59.387Z,9.25
2023-05-06T08:01:26.229Z,9.50
2023-05-06T08:03:52.864Z,7.57
2023-05-06T08:06:21.766Z,9.35
2023-05-06T08:08:48.444Z,8.83
2023-05-06T08:11:15.588Z,9.70
2023-05-06T08:13:42.996Z,8.93
2023-05-06T08:16:09.809Z,8.43
2023-05-06T08:18:36.393Z,9.38
2023-05-06T08:21:05.790Z,7.77
2023-05-06T08:23:32.598Z,7.78
2023-05-06T08:26:02.051Z,7.70
2023-05-06T08:28:29.391Z,6.85
2023-05-06T08:30:58.469Z,7.55
2023-05-06T08:33:27.698Z,8.27
2023-05-06T08:35:57.711Z,7.90
2023-05-06T08:38:25.862Z,9.50
2023-05-06T08:40:54.426Z,8.45
2023-05-06T08:43:22.754Z,7.82
2023-05-06T08:45:49.699Z,7.83
2023-05-06T08:48:17.074Z,8.75
2023-05-06T08:50:44.180Z,7.47
2023-05-06T08:53:14.285Z,7.90
2023-05-06T08:55:42.709Z,7.78
2023-05-06T08:58:13.437Z,6.17
2023-05-06T09:00:40.377Z,5.88
2023-05-06T09:03:09.525Z,6.93
2023-05-06T09:05:36.182Z,7.38
2023-05-06T09:08:05.494Z,7.60
2023-05-06T09:10:40.087Z,7.80
2023-05-06T09:13:09.015Z,6.47
2023-05-06T09:15:47.306Z,7.00
2023-05-06T09:18:16.904Z,9.27
2023-05-06T09:20:48.196Z,7.95
2023-05-06T09:23:16.564Z,6.97
2023-05-06T09:25:47.356Z,16.50
2023-05-06T09:28:14.590Z,9.50
2023-05-06T09:30:42.609Z,7.25
2023-05-06T09:33:09.586Z,10.38
2023-05-06T09:35:42.761Z,21.37
2023-05-06T09:38:09.822Z,25.40
2023-05-06T09:40:40.052Z,14.18
2023-05-06T09:43:06.804Z,20.80
2023-05-06T09:45:33.762Z,20.10
2023-05-06T09:48:01.143Z,14.20
2023-05-06T09:50:28.267Z,13.25
2023-05-06T09:52:55.717Z,12.65
2023-05-06T09:55:26.900Z,16.20
2023-05-06T09:57:54.764Z,15.10
2023-05-06T10:00:28.056Z,13.70
2023-05-06T10:02:55.316Z,17.55
2023-05-06T10:05:25.092Z,13.00
2023-05-06T10:07:53.558Z,18.77
2023-05-06T10:10:20.740Z,32.58
2023-05-06T10:12:49.766Z,30.07
2023-05-06T10:15:16.881Z,26.17
2023-05-06T10:17:48.210Z,28.55
2023-05-06T10:20:16.488Z,42.15
2023-05-06T10:23:09.169Z,41.97
2023-05-06T10:25:38.794Z,30.33
2023-05-06T10:28:12.300Z,38.65
2023-05-06T10:30:55.021Z,43.85
2023-05-06T10:33:24.783Z,30.75
2023-05-06T10:36:11.640Z,31.52
2023-05-06T10:38:43.491Z,34.10
2023-05-06T10:41:10.964Z,40.03
2023-05-06T10:43:42.890Z,70.25
2023-05-06T10:46:14.292Z,94.80
2023-05-06T10:49:08.465Z,87.13
2023-05-06T10:51:38.721Z,59.17
2023-05-06T10:54:09.923Z,54.70
2023-05-06T10:56:36.541Z,52.40
2023-05-06T10:59:11.259Z,52.95
2023-05-06T11:01:47.509Z,56.83
2023-05-06T11:04:15.995Z,49.20
2023-05-06T11:06:48.186Z,35.63
2023-05-06T11:09:20.383Z,32.85
2023-05-06T11:11:56.083Z,28.00
2023-05-06T11:14:30.842Z,26.60
2023-05-06T11:16:59.521Z,23.80
2023-05-06T11:19:31.151Z,23.08
2023-05-06T11:21:59.730Z,23.30
2023-05-06T11:24:28.657Z,25.00
2023-05-06T11:26:59.858Z,17.40
2023-05-06T11:29:27.063Z,20.47
2023-05-06T11:31:56.330Z,21.42
2023-05-06T11:34:28.867Z,20.45
2023-05-06T11:37:00.772Z,23.38
2023-05-06T11:39:33.271Z,26.52
2023-05-06T11:42:07.159Z,26.83
2023-05-06T11:44:37.553Z,32.20
2023-05-06T11:47:06.235Z,31.60
2023-05-06T11:49:43.273Z,25.23
2023-05-06T11:52:13.091Z,28.42
2023-05-06T11:54:41.973Z,30.37
2023-05-06T11:57:09.301Z,21.20
2023-05-06T11:59:37.974Z,18.38
2023-05-06T12:02:06.439Z,22.60
2023-05-06T12:04:46.532Z,25.67
2023-05-06T12:07:15.566Z,20.37
2023-05-06T12:09:44.515Z,25.58
2023-05-06T12:12:12.415Z,21.08
2023-05-06T12:14:40.233Z,30.17
2023-05-06T12:17:07.356Z,23.05
2023-05-06T12:19:35.953Z,23.77
2023-05-06T12:22:21.337Z,32.60
2023-05-06T12:24:48.886Z,29.27
2023-05-06T12:27:34.659Z,28.13
2023-05-06T12:30:02.699Z,26.95
2023-05-06T12:32:29.418Z,27.33
2023-05-06T12:34:56.694Z,23.58
2023-05-06T12:37:30.084Z,18.75
2023-05-06T12:39:59.556Z,22.80
2023-05-06T12:42:26.612Z,17.08
2023-05-06T12:44:53.363Z,19.70
2023-05-06T12:47:25.206Z,20.90
2023-05-06T12:49:58.429Z,23.55
2023-05-06T12:52:28.622Z,20.55
2023-05-06T12:54:56.026Z,17.35
2023-05-06T12:57:23.023Z,20.37
2023-05-06T12:59:49.881Z,21.95
2023-05-06T13:02:18.726Z,15.90
2023-05-06T13:04:46.885Z,18.15
2023-05-06T13:07:13.728Z,15.98
2023-05-06T13:09:40.571Z,17.77
2023-05-06T13:12:07.354Z,12.88
2023-05-06T13:14:34.096Z,20.13
2023-05-06T13:17:04.910Z,15.43
2023-05-06T13:19:33.287Z,17.30
2023-05-06T13:22:01.055Z,20.43
2023-05-06T13:24:28.100Z,18.48
2023-05-06T13:26:57.605Z,15.40
2023-05-06T13:29:31.985Z,15.95
2023-05-06T13:31:58.684Z,17.83
2023-05-06T13:34:26.080Z,11.37
2023-05-06T13:36:54.572Z,14.75
2023-05-06T13:39:21.769Z,17.85
2023-05-06T13:41:50.210Z,17.45
2023-05-06T13:44:17.760Z,15.75
2023-05-06T13:46:46.406Z,23.50
2023-05-06T13:49:19.228Z,14.40
2023-05-06T13:51:45.777Z,14.38
2023-05-06T13:54:12.476Z,19.98
2023-05-06T13:56:41.408Z,17.65
2023-05-06T13:59:09.991Z,14.27
2023-05-06T14:01:37.048Z,14.38
2023-05-06T14:04:03.879Z,16.38
2023-05-06T14:06:31.147Z,15.75
2023-05-06T14:08:57.731Z,16.42
2023-05-06T14:11:24.303Z,16.57
2023-05-06T14:13:55.704Z,17.48
2023-05-06T14:16:22.391Z,15.60
2023-05-06T14:18:48.978Z,18.08
2023-05-06T14:21:15.521Z,29.60
2023-05-06T14:23:42.098Z,34.83
2023-05-06T14:26:08.678Z,25.55
2023-05-06T14:28:37.762Z,33.67
2023-05-06T14:31:04.400Z,27.15
2023-05-06T14:33:33.750Z,26.67
2023-05-06T14:36:03.283Z,30.30
2023-05-06T14:38:32.224Z,34.78
2023-05-06T14:40:59.641Z,43.78
2023-05-06T14:43:26.253Z,43.53
2023-05-06T14:45:53.047Z,47.90
2023-05-06T14:48:19.709Z,46.07
2023-05-06T14:50:46.280Z,42.33
2023-05-06T14:53:12.857Z,40.03
2023-05-06T14:55:41.288Z,58.60
2023-05-06T14:58:10.605Z,38.67
2023-05-06T15:00:37.197Z,35.10
2023-05-06T15:03:04.582Z,29.23
2023-05-06T15:05:31.475Z,31.25
2023-05-06T15:07:58.079Z,30.63
2023-05-06T15:10:24.623Z,28.95
2023-05-06T15:12:51.233Z,26.93
2023-05-06T15:15:19.092Z,20.85
2023-05-06T15:17:45.798Z,27.35
2023-05-06T15:20:13.438Z,21.55
2023-05-06T15:22:40.388Z,18.25
2023-05-06T15:25:09.511Z,20.60
2023-05-06T15:27:41.843Z,16.15
2023-05-06T15:30:11.093Z,18.02
2023-05-06T15:32:37.740Z,19.42
2023-05-06T15:35:05.069Z,17.52
2023-05-06T15:37:35.173Z,19.40
2023-05-06T15:40:02.293Z,16.23
2023-05-06T15:42:29.668Z,14.25
2023-05-06T15:44:56.570Z,14.30
2023-05-06T15:47:25.460Z,17.67
2023-05-06T15:49:54.723Z,17.27
2023-05-06T15:52:22.762Z,17.88
2023-05-06T15:54:50.114Z,20.38
2023-05-06T15:57:18.551Z,18.58
2023-05-06T15:59:48.233Z,16.67
2023-05-06T16:02:26.994Z,17.63
2023-05-06T16:04:54.702Z,20.05
2023-05-06T16:07:21.512Z,22.38
2023-05-06T16:09:48.260Z,23.63
2023-05-06T16:12:17.349Z,19.40
2023-05-06T16:14:44.296Z,23.03
2023-05-06T16:17:13.134Z,16.90
2023-05-06T16:19:39.825Z,17.98
2023-05-06T16:22:06.456Z,14.70
2023-05-06T16:24:35.223Z,12.57
2023-05-06T16:27:01.811Z,17.43
2023-05-06T16:29:28.391Z,13.82
2023-05-06T16:31:55.140Z,19.23
2023-05-06T16:34:21.917Z,15.35
2023-05-06T16:36:48.626Z,18.88
2023-05-06T16:39:17.551Z,14.57
2023-05-06T16:41:46.564Z,17.90
2023-05-06T16:44:13.184Z,14.38
2023-05-06T16:46:39.787Z,29.70
2023-05-06T16:49:06.398Z,14.18
2023-05-06T16:51:35.509Z,17.97
2023-05-06T16:54:02.098Z,14.13
2023-05-06T16:56:40.480Z,13.43
2023-05-06T16:59:15.328Z,12.85
2023-05-06T17:01:41.923Z,10.88
2023-05-06T17:04:08.919Z,17.93
2023-05-06T17:06:37.703Z,11.55
2023-05-06T17:09:04.411Z,12.80
2023-05-06T17:11:31.073Z,10.25
2023-05-06T17:13:57.707Z,10.75
2023-05-06T17:16:26.712Z,10.23
2023-05-06T17:18:53.346Z,11.52
2023-05-06T17:21:21.366Z,13.02
2023-05-06T17:23:48.083Z,10.25
2023-05-06T17:26:17.793Z,15.05
2023-05-06T17:28:44.541Z,12.53
2023-05-06T17:31:11.185Z,8.18
2023-05-06T17:33:37.802Z,12.85
2023-05-06T17:36:07.185Z,9.50
2023-05-06T17:38:33.772Z,8.32
2023-05-06T17:41:00.378Z,8.23
2023-05-06T17:43:27.026Z,10.77
2023-05-06T17:45:56.219Z,8.20
2023-05-06T17:48:25.386Z,8.90
2023-05-06T17:50:56.731Z,8.07
2023-05-06T17:53:23.548Z,6.40
2023-05-06T17:55:50.086Z,8.27
2023-05-06T17:58:16.850Z,9.10
2023-05-06T18:00:43.430Z,10.27
2023-05-06T18:03:10.066Z,9.00
2023-05-06T18:05:36.764Z,15.37
2023-05-06T18:08:03.497Z,8.00
2023-05-06T18:10:30.176Z,8.13
2023-05-06T18:12:59.324Z,9.38
2023-05-06T18:15:25.948Z,10.18
2023-05-06T18:17:55.600Z,9.20
2023-05-06T18:20:24.394Z,10.48
2023-05-06T18:22:51.161Z,11.07
2023-05-06T18:25:17.791Z,8.73
2023-05-06T18:27:44.690Z,7.95
2023-05-06T18:30:11.834Z,9.63
2023-05-06T18:32:38.478Z,8.27
2023-05-06T18:35:05.520Z,11.98
2023-05-06T18:37:34.468Z,8.27
2023-05-06T18:40:01.065Z,6.47
2023-05-06T18:42:27.803Z,7.60
2023-05-06T18:44:54.500Z,8.38
2023-05-06T18:47:21.202Z,12.13
2023-05-06T18:49:48.669Z,9.82
2023-05-06T18:52:17.700Z,9.63
2023-05-06T18:54:46.698Z,12.50
2023-05-06T18:57:15.381Z,9.43
2023-05-06T18:59:44.459Z,9.13
2023-05-06T19:02:13.365Z,9.18
2023-05-06T19:04:39.960Z,8.27
2023-05-06T19:07:06.633Z,6.93
2023-05-06T19:09:36.921Z,9.02
2023-05-06T19:12:04.393Z,8.20
2023-05-06T19:14:32.418Z,9.48
2023-05-06T19:16:59.197Z,10.18
2023-05-06T19:19:26.027Z,7.60
2023-05-06T19:21:52.678Z,10.13
2023-05-06T19:24:21.741Z,10.60
2023-05-06T19:26:48.327Z,8.90
2023-05-06T19:29:14.933Z,10.48
2023-05-06T19:31:43.787Z,10.50
2023-05-06T19:34:10.364Z,9.80
2023-05-06T19:36:36.952Z,6.30
2023-05-06T19:39:03.747Z,7.00
2023-05-06T19:41:31.047Z,6.72
2023-05-06T19:43:57.651Z,7.20
2023-05-06T19:46:26.635Z,9.45
2023-05-06T19:48:53.289Z,8.00
2023-05-06T19:51:19.865Z,8.07
2023-05-06T19:53:46.860Z,7.35
2023-05-06T19:56:14.345Z,7.13
2023-05-06T19:58:41.078Z,8.48
2023-05-06T20:01:07.813Z,6.50
2023-05-06T20:03:35.627Z,6.63
2023-05-06T20:06:03.447Z,7.35
2023-05-06T20:08:31.059Z,6.20
2023-05-06T20:10:57.668Z,8.90
2023-05-06T20:13:24.487Z,6.43
2023-05-06T20:15:51.207Z,6.43
2023-05-06T20:18:17.870Z,6.68
2023-05-06T20:20:44.522Z,6.20
2023-05-06T20:23:13.608Z,9.13
2023-05-06T20:25:40.238Z,6.85
2023-05-06T20:28:07.112Z,6.57
2023-05-06T20:30:34.192Z,7.40
2023-05-06T20:33:01.149Z,6.30
2023-05-06T20:35:27.868Z,6.05
2023-05-06T20:37:56.856Z,6.78
2023-05-06T20:40:23.485Z,7.00
2023-05-06T20:42:50.126Z,7.50
2023-05-06T20:45:16.977Z,6.13
2023-05-06T20:47:46.009Z,5.65
2023-05-06T20:50:17.417Z,6.15
2023-05-06T20:52:47.568Z,5.65
2023-05-06T20:55:15.216Z,6.40
2023-05-06T20:57:43.478Z,5.53
2023-05-06T21:00:11.455Z,7.68
2023-05-06T21:02:41.322Z,9.88
2023-05-06T21:05:08.919Z,6.15
2023-05-06T21:07:36.021Z,6.32
2023-05-06T21:10:05.640Z,5.93
2023-05-06T21:12:33.288Z,6.00
2023-05-06T21:15:00.639Z,7.38
2023-05-06T21:17:27.575Z,6.32
2023-05-06T21:19:54.294Z,6.63
2023-05-06T21:22:23.189Z,4.87
2023-05-06T21:24:50.688Z,5.40
2023-05-06T21:27:17.324Z,5.32
2023-05-06T21:29:43.871Z,5.30
2023-05-06T21:32:10.487Z,4.70
2023-05-06T21:34:37.110Z,5.30
2023-05-06T21:37:03.681Z,4.95
2023-05-06T21:39:30.346Z,5.28
2023-05-06T21:41:56.940Z,6.97
2023-05-06T21:44:23.497Z,5.72
2023-05-06T21:46:50.141Z,4.53
2023-05-06T21:49:16.852Z,4.63
2023-05-06T21:51:43.511Z,71.65
2023-05-06T21:54:10.180Z,102.40
2023-05-06T21:56:36.775Z,34.75
2023-05-06T21:59:06.442Z,10.90
2023-05-06T22:01:36.347Z,12.05
2023-05-06T22:04:11.282Z,28.52
2023-05-06T22:06:38.709Z,38.25
2023-05-06T22:09:09.428Z,40.38
2023-05-06T22:11:38.767Z,39.67
2023-05-06T22:14:06.588Z,55.03
2023-05-06T22:16:37.950Z,61.70
2023-05-06T22:19:07.736Z,61.40
2023-05-06T22:21:35.123Z,53.67
2023-05-06T22:24:04.384Z,52.33
2023-05-06T22:26:32.988Z,58.30
2023-05-06T22:28:59.641Z,57.20
2023-05-06T22:31:26.534Z,38.50
2023-05-06T22:33:57.705Z,38.95
2023-05-06T22:36:29.168Z,37.87
2023-05-06T22:38:56.044Z,23.92
2023-05-06T22:41:22.764Z,15.93
2023-05-06T22:43:49.456Z,14.02
2023-05-06T22:46:16.234Z,10.52
2023-05-06T22:48:44.746Z,10.27
2023-05-06T22:51:11.634Z,7.30
2023-05-06T22:53:38.282Z,8.23
2023-05-06T22:56:05.119Z,6.55
2023-05-06T22:58:31.681Z,7.75
2023-05-06T23:00:58.426Z,6.93
2023-05-06T23:03:25.175Z,6.70
2023-05-06T23:05:52.262Z,5.53
2023-05-06T23:08:18.853Z,5.53
2023-05-06T23:10:45.608Z,5.70
2023-05-06T23:13:12.342Z,6.57
2023-05-06T23:15:41.668Z,5.00
2023-05-06T23:18:08.376Z,6.50
2023-05-06T23:20:35.033Z,5.07
2023-05-06T23:23:01.666Z,5.90
2023-05-06T23:25:28.263Z,5.40
2023-05-06T23:27:55.312Z,6.85
2023-05-06T23:30:22.008Z,6.40
2023-05-06T23:32:48.646Z,7.28
2023-05-06T23:35:15.346Z,5.70
2023-05-06T23:37:41.931Z,6.33
2023-05-06T23:40:12.671Z,6.25
2023-05-06T23:42:40.580Z,5.85
2023-05-06T23:45:07.830Z,6.85
2023-05-06T23:47:34.543Z,6.60
2023-05-06T23:50:01.501Z,7.17
2023-05-06T23:52:28.095Z,6.63
2023-05-06T23:54:54.702Z,6.55
2023-05-06T23:57:23.582Z,7.00
2023-05-06T23:59:50.155Z,6.60
